createdAt,value
2023-07-04T00:00:52.944Z,6.43
2023-07-04T00:01:56.069Z,6.29
2023-07-04T00:02:59.067Z,5.50
2023-07-04T00:04:01.822Z,6.50
2023-07-04T00:05:04.762Z,6.71
2023-07-04T00:06:07.748Z,6.33
2023-07-04T00:07:10.643Z,4.43
2023-07-04T00:08:13.598Z,3.83
2023-07-04T00:09:16.456Z,4.43
2023-07-04T00:10:19.245Z,5.67
2023-07-04T00:11:22.141Z,6.00
2023-07-04T00:12:25.229Z,5.00
2023-07-04T00:13:28.003Z,6.00
2023-07-04T00:14:31.096Z,4.71
2023-07-04T00:15:34.020Z,3.67
2023-07-04T00:16:37.111Z,4.14
2023-07-04T00:17:40.213Z,3.57
2023-07-04T00:18:43.344Z,4.33
2023-07-04T00:19:46.144Z,5.00
2023-07-04T00:20:48.985Z,5.86
2023-07-04T00:21:54.436Z,6.00
2023-07-04T00:23:00.147Z,5.50
2023-07-04T00:24:02.909Z,5.87
2023-07-04T00:25:08.484Z,3.67
2023-07-04T00:26:14.049Z,4.50
2023-07-04T00:27:16.800Z,4.75
2023-07-04T00:28:19.478Z,4.67
2023-07-04T00:29:24.944Z,4.29
2023-07-04T00:30:27.741Z,5.00
2023-07-04T00:31:30.515Z,4.43
2023-07-04T00:32:33.534Z,5.33
2023-07-04T00:33:38.786Z,5.29
2023-07-04T00:34:53.436Z,3.75
2023-07-04T00:35:56.352Z,3.37
2023-07-04T00:36:59.282Z,4.29
2023-07-04T00:38:04.542Z,4.33
2023-07-04T00:39:07.106Z,4.50
2023-07-04T00:40:09.988Z,3.33
2023-07-04T00:41:15.280Z,2.83
2023-07-04T00:42:20.985Z,3.00
2023-07-04T00:43:26.548Z,3.87
2023-07-04T00:44:29.209Z,4.25
2023-07-04T00:45:31.920Z,4.33
2023-07-04T00:46:37.469Z,3.86
2023-07-04T00:47:40.312Z,3.87
2023-07-04T00:48:45.682Z,3.00
2023-07-04T00:49:51.249Z,4.00
2023-07-04T00:50:56.494Z,4.25
2023-07-04T00:52:02.168Z,3.62
2023-07-04T00:53:05.168Z,3.50
2023-07-04T00:54:08.329Z,4.00
2023-07-04T00:55:11.204Z,3.83
2023-07-04T00:56:14.203Z,4.71
2023-07-04T00:57:22.761Z,5.50
2023-07-04T00:58:25.603Z,5.00
2023-07-04T00:59:28.544Z,4.17
2023-07-04T01:00:31.422Z,2.43
2023-07-04T01:01:36.859Z,3.00
2023-07-04T01:02:42.638Z,2.50
2023-07-04T01:03:45.671Z,3.75
2023-07-04T01:04:48.615Z,5.33
2023-07-04T01:05:54.453Z,3.33
2023-07-04T01:06:57.529Z,1.00
2023-07-04T01:08:03.128Z,2.43
2023-07-04T01:09:08.593Z,2.12
2023-07-04T01:10:14.007Z,2.00
2023-07-04T01:11:19.356Z,2.50
2023-07-04T01:12:22.232Z,2.50
2023-07-04T01:13:25.147Z,3.00
2023-07-04T01:14:28.043Z,3.00
2023-07-04T01:15:33.473Z,2.67
2023-07-04T01:16:39.322Z,3.25
2023-07-04T01:17:44.847Z,2.50
2023-07-04T01:18:50.403Z,3.25
2023-07-04T01:19:53.132Z,2.87
2023-07-04T01:20:55.801Z,2.83
2023-07-04T01:22:01.337Z,3.33
2023-07-04T01:23:04.017Z,1.50
2023-07-04T01:24:09.841Z,1.33
2023-07-04T01:25:15.686Z,2.50
2023-07-04T01:26:21.196Z,3.12
2023-07-04T01:27:23.824Z,3.12
2023-07-04T01:28:26.506Z,1.83
2023-07-04T01:29:32.303Z,1.33
2023-07-04T01:30:34.955Z,2.12
2023-07-04T01:31:40.654Z,3.00
2023-07-04T01:32:46.279Z,3.25
2023-07-04T01:33:48.981Z,2.12
2023-07-04T01:34:51.684Z,1.00
2023-07-04T01:35:54.395Z,1.00
2023-07-04T01:37:03.145Z,1.00
2023-07-04T01:38:06.405Z,1.25
2023-07-04T01:39:09.387Z,2.00
2023-07-04T01:40:12.322Z,2.00
2023-07-04T01:41:18.034Z,2.00
2023-07-04T01:42:21.049Z,3.00
2023-07-04T01:43:26.629Z,3.14
2023-07-04T01:44:29.499Z,1.62
2023-07-04T01:45:32.499Z,1.67
2023-07-04T01:46:35.148Z,2.86
2023-07-04T01:47:43.682Z,3.33
2023-07-04T01:48:49.159Z,2.00
2023-07-04T01:49:52.153Z,1.00
2023-07-04T01:50:55.242Z,1.33
2023-07-04T01:51:58.364Z,1.67
2023-07-04T01:53:04.110Z,1.33
2023-07-04T01:54:09.968Z,1.25
2023-07-04T01:55:12.788Z,0.50
2023-07-04T01:56:18.502Z,1.00
2023-07-04T01:57:21.398Z,2.00
2023-07-04T01:58:24.316Z,1.57
2023-07-04T01:59:29.749Z,1.00
2023-07-04T02:00:35.242Z,1.50
2023-07-04T02:01:38.235Z,1.50
2023-07-04T02:02:41.057Z,1.00
2023-07-04T02:03:50.048Z,1.00
2023-07-04T02:04:52.948Z,1.25
2023-07-04T02:05:55.825Z,0.33
2023-07-04T02:06:58.714Z,0.67
2023-07-04T02:08:04.496Z,0.83
2023-07-04T02:09:07.661Z,1.00
2023-07-04T02:10:16.438Z,1.43
2023-07-04T02:11:19.143Z,1.00
2023-07-04T02:12:21.908Z,1.43
2023-07-04T02:13:24.568Z,2.00
2023-07-04T02:14:30.267Z,1.67
2023-07-04T02:15:32.946Z,1.50
2023-07-04T02:16:41.462Z,1.83
2023-07-04T02:17:46.966Z,1.25
2023-07-04T02:18:49.607Z,1.50
2023-07-04T02:19:52.293Z,2.50
2023-07-04T02:20:55.064Z,1.67
2023-07-04T02:22:00.943Z,1.00
2023-07-04T02:23:06.662Z,1.00
2023-07-04T02:24:12.129Z,1.00
2023-07-04T02:25:17.622Z,0.62
2023-07-04T02:26:20.546Z,0.50
2023-07-04T02:27:23.422Z,1.43
2023-07-04T02:28:26.478Z,2.00
2023-07-04T02:29:32.104Z,3.00
2023-07-04T02:30:37.844Z,2.00
2023-07-04T02:31:46.379Z,1.00
2023-07-04T02:32:51.907Z,2.00
2023-07-04T02:33:54.837Z,2.00
2023-07-04T02:34:57.764Z,2.00
2023-07-04T02:36:03.533Z,1.29
2023-07-04T02:37:06.537Z,1.50
2023-07-04T02:38:12.001Z,1.83
2023-07-04T02:39:14.930Z,1.50
2023-07-04T02:40:17.838Z,1.67
2023-07-04T02:41:23.586Z,1.86
2023-07-04T02:42:29.055Z,2.50
2023-07-04T02:43:32.033Z,1.00
2023-07-04T02:44:35.138Z,1.43
2023-07-04T02:45:37.809Z,1.00
2023-07-04T02:46:43.488Z,1.33
2023-07-04T02:47:49.059Z,3.50
2023-07-04T02:48:54.520Z,3.50
2023-07-04T02:49:59.997Z,2.50
2023-07-04T02:51:05.469Z,2.00
2023-07-04T02:52:08.427Z,2.00
2023-07-04T02:53:11.331Z,2.00
2023-07-04T02:54:14.098Z,2.33
2023-07-04T02:55:16.984Z,2.57
2023-07-04T02:56:25.640Z,3.00
2023-07-04T02:57:28.590Z,2.50
2023-07-04T02:58:31.235Z,1.33
2023-07-04T02:59:36.600Z,2.00
2023-07-04T03:00:42.148Z,2.00
2023-07-04T03:01:44.862Z,1.62
2023-07-04T03:02:50.399Z,1.67
2023-07-04T03:03:53.329Z,3.00
2023-07-04T03:05:02.199Z,3.00
2023-07-04T03:06:04.862Z,2.00
2023-07-04T03:07:07.532Z,1.67
2023-07-04T03:08:12.993Z,1.00
2023-07-04T03:09:15.675Z,1.62
2023-07-04T03:10:21.352Z,2.00
2023-07-04T03:11:26.808Z,2.50
2023-07-04T03:12:32.688Z,2.12
2023-07-04T03:13:35.718Z,2.50
2023-07-04T03:14:38.806Z,2.29
2023-07-04T03:15:41.811Z,3.29
2023-07-04T03:16:47.553Z,4.33
2023-07-04T03:17:53.067Z,2.00
2023-07-04T03:18:58.542Z,2.50
2023-07-04T03:20:01.459Z,3.50
2023-07-04T03:21:04.353Z,3.00
2023-07-04T03:22:07.358Z,2.71
2023-07-04T03:23:12.795Z,3.17
2023-07-04T03:24:18.279Z,3.00
2023-07-04T03:25:23.808Z,3.00
2023-07-04T03:26:29.413Z,3.37
2023-07-04T03:27:34.864Z,3.50
2023-07-04T03:28:37.699Z,3.50
2023-07-04T03:29:40.380Z,4.00
2023-07-04T03:30:43.080Z,4.00
2023-07-04T03:31:48.877Z,4.33
2023-07-04T03:32:54.366Z,4.50
2023-07-04T03:33:59.885Z,4.87
2023-07-04T03:35:14.492Z,4.37
2023-07-04T03:36:19.878Z,4.87
2023-07-04T03:37:22.704Z,4.50
2023-07-04T03:38:25.664Z,4.00
2023-07-04T03:39:31.092Z,4.00
2023-07-04T03:40:36.553Z,2.87
2023-07-04T03:41:42.318Z,3.00
2023-07-04T03:42:45.083Z,3.37
2023-07-04T03:43:47.793Z,4.29
2023-07-04T03:44:50.439Z,5.33
2023-07-04T03:45:56.142Z,5.33
2023-07-04T03:47:01.635Z,4.00
2023-07-04T03:48:07.528Z,4.12
2023-07-04T03:49:13.326Z,4.00
2023-07-04T03:50:16.216Z,3.00
2023-07-04T03:51:19.055Z,4.00
2023-07-04T03:52:22.089Z,5.14
2023-07-04T03:53:27.825Z,3.83
2023-07-04T03:54:30.777Z,3.62
2023-07-04T03:55:36.239Z,4.29
2023-07-04T03:56:39.292Z,5.00
2023-07-04T03:57:42.357Z,5.33
2023-07-04T03:58:47.863Z,5.00
2023-07-04T03:59:53.372Z,5.00
2023-07-04T04:00:58.810Z,4.62
2023-07-04T04:02:01.848Z,4.00
2023-07-04T04:03:04.880Z,4.33
2023-07-04T04:04:07.886Z,5.33
2023-07-04T04:05:13.416Z,4.29
2023-07-04T04:06:18.940Z,4.75
2023-07-04T04:07:22.111Z,5.00
2023-07-04T04:08:25.080Z,5.00
2023-07-04T04:09:27.899Z,5.67
2023-07-04T04:10:33.463Z,6.33
2023-07-04T04:11:38.927Z,5.00
2023-07-04T04:12:44.391Z,3.75
2023-07-04T04:13:49.880Z,4.00
2023-07-04T04:14:52.980Z,4.00
2023-07-04T04:15:55.956Z,4.33
2023-07-04T04:16:58.916Z,5.29
2023-07-04T04:18:04.722Z,5.00
2023-07-04T04:19:10.222Z,4.50
2023-07-04T04:20:15.677Z,4.50
2023-07-04T04:21:18.626Z,5.50
2023-07-04T04:22:21.652Z,6.17
2023-07-04T04:23:24.525Z,6.57
2023-07-04T04:24:30.181Z,5.33
2023-07-04T04:25:33.086Z,4.62
2023-07-04T04:26:41.664Z,5.00
2023-07-04T04:27:44.674Z,5.00
2023-07-04T04:28:47.656Z,5.00
2023-07-04T04:29:50.342Z,5.17
2023-07-04T04:30:56.212Z,6.00
2023-07-04T04:32:01.881Z,5.50
2023-07-04T04:33:04.537Z,5.75
2023-07-04T04:34:10.298Z,6.00
2023-07-04T04:35:12.976Z,4.50
2023-07-04T04:36:15.677Z,5.86
2023-07-04T04:37:21.150Z,5.50
2023-07-04T04:38:26.887Z,4.00
2023-07-04T04:39:32.349Z,5.50
2023-07-04T04:40:37.874Z,5.00
2023-07-04T04:41:40.542Z,5.00
2023-07-04T04:42:43.194Z,5.67
2023-07-04T04:43:45.854Z,5.33
2023-07-04T04:44:51.441Z,5.00
2023-07-04T04:45:54.280Z,4.00
2023-07-04T04:46:57.282Z,5.00
2023-07-04T04:48:03.038Z,5.00
2023-07-04T04:49:08.562Z,4.87
2023-07-04T04:50:11.524Z,5.12
2023-07-04T04:51:16.888Z,3.67
2023-07-04T04:52:20.287Z,4.25
2023-07-04T04:53:23.256Z,5.57
2023-07-04T04:54:29.069Z,5.00
2023-07-04T04:55:34.780Z,5.50
2023-07-04T04:56:37.708Z,5.75
2023-07-04T04:57:40.646Z,6.00
2023-07-04T04:58:50.496Z,6.00
2023-07-04T04:59:53.493Z,7.00
2023-07-04T05:00:56.471Z,7.33
2023-07-04T05:01:59.674Z,7.14
2023-07-04T05:03:02.801Z,6.86
2023-07-04T05:04:08.417Z,7.67
2023-07-04T05:05:14.203Z,7.00
2023-07-04T05:06:17.127Z,6.50
2023-07-04T05:07:19.776Z,6.00
2023-07-04T05:08:25.247Z,6.00
2023-07-04T05:09:30.725Z,6.25
2023-07-04T05:10:33.616Z,14.50
2023-07-04T05:11:39.080Z,29.29
2023-07-04T05:12:42.144Z,33.50
2023-07-04T05:13:45.081Z,34.00
2023-07-04T05:14:50.608Z,35.50
2023-07-04T05:15:56.097Z,34.25
2023-07-04T05:16:59.031Z,35.25
2023-07-04T05:18:04.570Z,37.86
2023-07-04T05:19:10.283Z,37.75
2023-07-04T05:20:13.219Z,36.25
2023-07-04T05:21:16.138Z,36.00
2023-07-04T05:22:22.084Z,37.29
2023-07-04T05:23:24.984Z,39.50
2023-07-04T05:24:28.008Z,42.14
2023-07-04T05:25:30.968Z,37.86
2023-07-04T05:26:36.382Z,37.17
2023-07-04T05:27:41.797Z,35.63
2023-07-04T05:28:47.268Z,35.25
2023-07-04T05:29:52.673Z,39.00
2023-07-04T05:30:55.443Z,38.63
2023-07-04T05:31:58.134Z,36.00
2023-07-04T05:33:00.811Z,36.33
2023-07-04T05:34:06.241Z,37.57
2023-07-04T05:35:11.978Z,35.75
2023-07-04T05:36:17.421Z,35.75
2023-07-04T05:37:20.431Z,34.50
2023-07-04T05:38:23.482Z,35.71
2023-07-04T05:39:26.398Z,38.17
2023-07-04T05:40:31.863Z,37.29
2023-07-04T05:41:37.766Z,34.75
2023-07-04T05:42:43.516Z,35.38
2023-07-04T05:43:46.522Z,35.75
2023-07-04T05:44:49.532Z,35.43
2023-07-04T05:45:52.563Z,34.67
2023-07-04T05:46:57.974Z,33.00
2023-07-04T05:48:03.648Z,34.63
2023-07-04T05:49:06.598Z,36.00
2023-07-04T05:50:09.604Z,36.29
2023-07-04T05:51:12.526Z,35.67
2023-07-04T05:52:15.401Z,32.50
2023-07-04T05:53:24.045Z,35.67
2023-07-04T05:54:29.413Z,35.38
2023-07-04T05:55:33.259Z,33.00
2023-07-04T05:56:39.281Z,34.29
2023-07-04T05:57:42.145Z,34.50
2023-07-04T05:58:45.381Z,33.29
2023-07-04T05:59:48.303Z,33.33
2023-07-04T06:00:54.387Z,33.50
2023-07-04T06:02:00.448Z,33.50
2023-07-04T06:03:03.386Z,31.62
2023-07-04T06:04:06.301Z,31.00
2023-07-04T06:05:09.349Z,31.00
2023-07-04T06:06:14.793Z,29.71
2023-07-04T06:07:20.199Z,30.75
2023-07-04T06:08:23.289Z,31.00
2023-07-04T06:09:26.119Z,31.00
2023-07-04T06:10:31.906Z,29.83
2023-07-04T06:11:34.800Z,31.25
2023-07-04T06:12:37.664Z,33.33
2023-07-04T06:13:43.159Z,32.00
2023-07-04T06:14:48.583Z,35.00
2023-07-04T06:15:51.601Z,31.00
2023-07-04T06:16:54.592Z,30.00
2023-07-04T06:18:03.122Z,30.00
2023-07-04T06:19:06.084Z,31.25
2023-07-04T06:20:09.267Z,32.14
2023-07-04T06:21:12.101Z,29.43
2023-07-04T06:22:20.662Z,31.00
2023-07-04T06:23:23.707Z,30.12
2023-07-04T06:24:26.714Z,31.00
2023-07-04T06:25:29.645Z,32.00
2023-07-04T06:26:38.445Z,33.17
2023-07-04T06:27:41.583Z,34.50
2023-07-04T06:28:47.091Z,32.50
2023-07-04T06:29:50.126Z,32.13
2023-07-04T06:30:58.892Z,33.33
2023-07-04T06:32:01.819Z,28.38
2023-07-04T06:33:04.767Z,28.14
2023-07-04T06:34:10.167Z,29.00
2023-07-04T06:35:15.911Z,28.50
2023-07-04T06:36:18.799Z,29.00
2023-07-04T06:37:21.731Z,32.00
2023-07-04T06:38:27.342Z,32.29
2023-07-04T06:39:32.751Z,27.87
2023-07-04T06:40:38.206Z,24.12
2023-07-04T06:41:41.176Z,26.75
2023-07-04T06:42:46.601Z,27.86
2023-07-04T06:43:49.573Z,29.00
2023-07-04T06:44:52.528Z,29.50
2023-07-04T06:45:58.373Z,29.14
2023-07-04T06:47:03.956Z,29.25
2023-07-04T06:48:07.085Z,30.25
2023-07-04T06:49:10.030Z,29.29
2023-07-04T06:50:12.970Z,29.67
2023-07-04T06:51:18.502Z,27.83
2023-07-04T06:52:24.139Z,29.63
2023-07-04T06:53:29.671Z,31.62
2023-07-04T06:54:33.324Z,28.00
2023-07-04T06:55:36.317Z,29.57
2023-07-04T06:56:39.289Z,32.67
2023-07-04T06:57:44.700Z,30.33
2023-07-04T06:58:50.097Z,30.00
2023-07-04T06:59:55.690Z,28.87
2023-07-04T07:00:58.755Z,27.87
2023-07-04T07:02:01.666Z,29.33
2023-07-04T07:03:05.458Z,30.33
2023-07-04T07:04:11.727Z,28.62
2023-07-04T07:05:14.733Z,29.25
2023-07-04T07:06:20.540Z,29.86
2023-07-04T07:07:23.401Z,31.12
2023-07-04T07:08:27.696Z,28.67
2023-07-04T07:09:30.605Z,28.50
2023-07-04T07:10:36.319Z,30.17
2023-07-04T07:11:41.856Z,29.50
2023-07-04T07:12:47.658Z,29.25
2023-07-04T07:13:50.731Z,31.50
2023-07-04T07:14:53.868Z,31.43
2023-07-04T07:15:56.751Z,28.86
2023-07-04T07:17:08.254Z,30.29
2023-07-04T07:18:11.433Z,28.87
2023-07-04T07:19:16.324Z,29.57
2023-07-04T07:20:18.413Z,30.50
2023-07-04T07:21:23.835Z,28.83
2023-07-04T07:22:26.717Z,30.00
2023-07-04T07:23:32.265Z,28.86
2023-07-04T07:24:37.853Z,30.00
2023-07-04T07:25:43.369Z,30.62
2023-07-04T07:26:48.881Z,29.75
2023-07-04T07:27:56.061Z,28.00
2023-07-04T07:28:59.143Z,24.87
2023-07-04T07:30:04.758Z,28.86
2023-07-04T07:31:07.557Z,32.25
2023-07-04T07:32:10.494Z,29.33
2023-07-04T07:33:13.532Z,31.17
2023-07-04T07:34:19.258Z,31.67
2023-07-04T07:35:24.918Z,32.75
2023-07-04T07:36:28.004Z,32.88
2023-07-04T07:37:31.005Z,32.50
2023-07-04T07:38:36.751Z,31.57
2023-07-04T07:39:42.301Z,28.75
2023-07-04T07:40:56.886Z,29.50
2023-07-04T07:41:59.759Z,31.25
2023-07-04T07:43:02.685Z,31.29
2023-07-04T07:44:08.144Z,31.00
2023-07-04T07:45:13.603Z,30.25
2023-07-04T07:46:16.505Z,31.00
2023-07-04T07:47:19.309Z,32.50
2023-07-04T07:48:25.309Z,30.67
2023-07-04T07:49:30.933Z,33.75
2023-07-04T07:50:33.925Z,30.37
2023-07-04T07:51:36.844Z,29.57
2023-07-04T07:52:42.610Z,29.17
2023-07-04T07:53:45.510Z,27.62
2023-07-04T07:54:48.426Z,24.50
2023-07-04T07:55:53.921Z,24.14
2023-07-04T07:56:59.426Z,22.75
2023-07-04T07:58:04.934Z,23.38
2023-07-04T07:59:07.994Z,24.87
2023-07-04T08:00:10.931Z,25.33
2023-07-04T08:01:16.718Z,22.00
2023-07-04T08:02:22.279Z,23.75
2023-07-04T08:03:25.337Z,23.50
2023-07-04T08:04:28.563Z,24.57
2023-07-04T08:05:34.122Z,23.50
2023-07-04T08:06:39.941Z,23.38
2023-07-04T08:07:42.801Z,25.75
2023-07-04T08:08:51.330Z,24.86
2023-07-04T08:09:54.297Z,24.00
2023-07-04T08:10:59.725Z,27.00
2023-07-04T08:12:04.129Z,22.87
2023-07-04T08:13:06.875Z,24.12
2023-07-04T08:14:12.731Z,27.00
2023-07-04T08:15:18.425Z,27.25
2023-07-04T08:16:21.509Z,30.75
2023-07-04T08:17:24.488Z,29.57
2023-07-04T08:18:29.983Z,27.17
2023-07-04T08:19:35.468Z,28.00
2023-07-04T08:20:38.411Z,31.00
2023-07-04T08:21:41.137Z,33.00
2023-07-04T08:24:02.804Z,29.50
2023-07-04T08:25:05.760Z,31.67
2023-07-04T08:26:08.790Z,29.57
2023-07-04T08:27:11.879Z,29.67
2023-07-04T08:28:17.665Z,33.43
2023-07-04T08:29:20.616Z,34.25
2023-07-04T08:30:23.807Z,32.86
2023-07-04T08:31:29.347Z,28.57
2023-07-04T08:32:34.974Z,28.12
2023-07-04T08:33:40.600Z,29.50
2023-07-04T08:34:43.530Z,28.62
2023-07-04T08:35:46.232Z,26.83
2023-07-04T08:36:52.019Z,27.67
2023-07-04T08:37:54.959Z,25.12
2023-07-04T08:38:57.925Z,24.29
2023-07-04T08:40:00.651Z,22.00
2023-07-04T08:41:06.407Z,23.50
2023-07-04T08:42:11.940Z,25.00
2023-07-04T08:43:14.871Z,24.50
2023-07-04T08:44:17.746Z,22.50
2023-07-04T08:45:23.565Z,21.67
2023-07-04T08:46:29.114Z,22.13
2023-07-04T08:47:34.653Z,24.50
2023-07-04T08:48:37.672Z,24.37
2023-07-04T08:49:40.642Z,22.67
2023-07-04T08:50:49.132Z,20.14
2023-07-04T08:51:51.997Z,23.75
2023-07-04T08:52:57.473Z,25.67
2023-07-04T08:54:00.570Z,23.75
2023-07-04T08:55:06.092Z,23.43
2023-07-04T08:56:11.868Z,21.62
2023-07-04T08:57:14.789Z,20.00
2023-07-04T08:58:17.689Z,20.43
2023-07-04T08:59:23.212Z,21.14
2023-07-04T09:00:28.685Z,21.00
2023-07-04T09:01:34.172Z,19.62
2023-07-04T09:02:37.250Z,21.00
2023-07-04T09:03:40.558Z,23.71
2023-07-04T09:04:49.228Z,21.86
2023-07-04T09:05:52.161Z,19.75
2023-07-04T09:06:55.102Z,19.00
2023-07-04T09:08:00.529Z,20.33
2023-07-04T09:09:05.974Z,19.50
2023-07-04T09:10:08.921Z,19.00
2023-07-04T09:11:11.814Z,20.50
2023-07-04T09:12:14.678Z,21.71
2023-07-04T09:13:20.539Z,20.17
2023-07-04T09:14:26.436Z,21.12
2023-07-04T09:15:29.382Z,24.50
2023-07-04T09:16:32.315Z,20.43
2023-07-04T09:17:35.227Z,20.67
2023-07-04T09:18:43.982Z,21.14
2023-07-04T09:19:46.701Z,22.37
2023-07-04T09:20:49.492Z,22.00
2023-07-04T09:21:52.182Z,21.83
2023-07-04T09:22:57.461Z,21.83
2023-07-04T09:24:03.124Z,19.12
2023-07-04T09:25:08.718Z,18.50
2023-07-04T09:26:11.384Z,18.50
2023-07-04T09:27:14.175Z,19.00
2023-07-04T09:28:19.925Z,20.57
2023-07-04T09:29:25.332Z,20.62
2023-07-04T09:31:33.986Z,19.87
2023-07-04T09:32:36.958Z,20.00
2023-07-04T09:33:42.274Z,18.00
2023-07-04T09:34:50.734Z,20.00
2023-07-04T09:35:55.961Z,20.00
2023-07-04T09:36:58.895Z,19.12
2023-07-04T09:38:01.839Z,19.00
2023-07-04T09:39:07.585Z,19.86
2023-07-04T09:40:10.650Z,18.50
2023-07-04T09:41:16.088Z,18.50
2023-07-04T09:42:41.939Z,20.75
2023-07-04T09:43:34.196Z,19.37
2023-07-04T09:44:37.351Z,18.50
2023-07-04T09:45:40.370Z,18.50
2023-07-04T09:46:45.968Z,20.17
2023-07-04T09:47:51.502Z,19.00
2023-07-04T09:48:57.005Z,19.50
2023-07-04T09:49:59.916Z,19.87
2023-07-04T09:51:08.458Z,19.00
2023-07-04T09:52:13.887Z,18.00
2023-07-04T09:53:16.934Z,17.00
2023-07-04T09:54:19.860Z,18.86
2023-07-04T09:55:25.599Z,20.29
2023-07-04T09:56:28.616Z,19.00
2023-07-04T09:57:31.546Z,19.17
2023-07-04T09:58:37.026Z,19.83
2023-07-04T09:59:42.749Z,18.00
2023-07-04T10:00:45.703Z,18.25
2023-07-04T10:01:48.751Z,16.57
2023-07-04T10:02:51.852Z,16.33
2023-07-04T10:04:00.374Z,16.43
2023-07-04T10:05:03.312Z,16.50
2023-07-04T10:06:06.247Z,16.33
2023-07-04T10:07:09.478Z,18.00
2023-07-04T10:08:15.035Z,17.00
2023-07-04T10:09:19.378Z,16.75
2023-07-04T10:10:22.224Z,16.62
2023-07-04T10:11:27.878Z,15.17
2023-07-04T10:12:33.552Z,15.00
2023-07-04T10:13:39.577Z,15.88
2023-07-04T10:14:42.524Z,16.50
2023-07-04T10:15:45.424Z,17.00
2023-07-04T10:16:51.041Z,16.14
2023-07-04T10:17:53.981Z,16.00
2023-07-04T10:18:57.006Z,15.83
2023-07-04T10:20:08.913Z,17.00
2023-07-04T10:21:12.302Z,10.14
2023-07-04T10:22:15.798Z,16.00
2023-07-04T10:23:19.168Z,15.57
2023-07-04T10:24:24.117Z,15.50
2023-07-04T10:25:27.179Z,15.25
2023-07-04T10:26:30.565Z,16.14
2023-07-04T10:27:34.049Z,15.71
2023-07-04T10:28:37.749Z,17.57
2023-07-04T10:29:41.234Z,16.62
2023-07-04T10:30:44.630Z,15.71
2023-07-04T10:31:48.027Z,16.71
2023-07-04T10:32:51.382Z,14.71
2023-07-04T10:33:54.785Z,14.71
2023-07-04T10:34:58.080Z,14.57
2023-07-04T10:36:01.179Z,14.00
2023-07-04T10:37:04.742Z,14.33
2023-07-04T10:38:08.026Z,15.13
2023-07-04T10:39:11.243Z,17.29
2023-07-04T10:40:14.453Z,16.43
2023-07-04T10:41:17.571Z,13.57
2023-07-04T10:42:20.955Z,15.43
2023-07-04T10:43:24.548Z,14.71
2023-07-04T10:44:27.930Z,14.29
2023-07-04T10:45:31.132Z,15.43
2023-07-04T10:46:34.429Z,14.43
2023-07-04T10:47:37.710Z,14.57
2023-07-04T10:48:40.771Z,15.14
2023-07-04T10:49:44.049Z,14.00
2023-07-04T10:50:47.146Z,14.43
2023-07-04T10:51:50.409Z,15.83
2023-07-04T10:52:53.600Z,16.29
2023-07-04T10:53:56.792Z,16.67
2023-07-04T10:54:59.852Z,13.33
2023-07-04T10:56:03.276Z,14.43
2023-07-04T10:57:06.320Z,16.00
2023-07-04T10:58:09.501Z,14.00
2023-07-04T10:59:12.757Z,14.43
2023-07-04T11:00:15.967Z,15.43
2023-07-04T11:01:19.203Z,15.57
2023-07-04T11:02:22.494Z,14.00
2023-07-04T11:03:25.797Z,13.43
2023-07-04T11:04:29.105Z,13.86
2023-07-04T11:05:32.308Z,13.86
2023-07-04T11:06:35.465Z,14.86
2023-07-04T11:07:38.746Z,14.86
2023-07-04T11:08:41.925Z,14.43
2023-07-04T11:09:45.114Z,15.86
2023-07-04T11:10:48.187Z,15.00
2023-07-04T11:11:51.541Z,13.33
2023-07-04T11:12:54.682Z,14.43
2023-07-04T11:13:58.006Z,15.57
2023-07-04T11:15:01.227Z,15.57
2023-07-04T11:16:04.296Z,15.86
2023-07-04T11:17:07.631Z,16.83
2023-07-04T11:18:10.929Z,15.43
2023-07-04T11:19:14.051Z,14.00
2023-07-04T11:20:17.272Z,15.29
2023-07-04T11:21:20.332Z,16.14
2023-07-04T11:22:23.819Z,15.14
2023-07-04T11:23:27.098Z,15.00
2023-07-04T11:24:30.484Z,15.00
2023-07-04T11:25:34.014Z,15.43
2023-07-04T11:26:37.156Z,15.71
2023-07-04T11:27:40.233Z,16.43
2023-07-04T11:28:43.482Z,16.29
2023-07-04T11:29:46.772Z,15.57
2023-07-04T11:30:50.171Z,14.71
2023-07-04T11:31:53.480Z,15.00
2023-07-04T11:32:56.808Z,15.14
2023-07-04T11:34:00.043Z,15.29
2023-07-04T11:35:03.119Z,15.71
2023-07-04T11:36:06.411Z,14.00
2023-07-04T11:37:09.601Z,14.57
2023-07-04T11:38:12.667Z,14.33
2023-07-04T11:39:15.875Z,13.86
2023-07-04T11:40:19.169Z,14.43
2023-07-04T11:41:22.318Z,15.00
2023-07-04T11:42:25.511Z,15.14
2023-07-04T11:43:28.779Z,15.43
2023-07-04T11:44:32.072Z,15.00
2023-07-04T11:45:35.349Z,15.57
2023-07-04T11:46:38.568Z,15.33
2023-07-04T11:47:41.758Z,14.33
2023-07-04T11:48:44.895Z,15.29
2023-07-04T11:49:48.280Z,15.29
2023-07-04T11:50:51.835Z,16.33
2023-07-04T11:51:55.571Z,19.57
2023-07-04T11:52:58.773Z,18.00
2023-07-04T11:54:02.030Z,15.86
2023-07-04T11:55:05.225Z,15.43
2023-07-04T11:56:08.302Z,15.43
2023-07-04T11:57:16.147Z,17.00
2023-07-04T11:58:15.889Z,16.75
2023-07-04T11:59:19.053Z,14.17
2023-07-04T12:00:22.168Z,15.50
2023-07-04T12:01:25.225Z,17.29
2023-07-04T12:02:28.577Z,16.00
2023-07-04T12:03:32.115Z,16.00
2023-07-04T12:04:35.542Z,16.14
2023-07-04T12:05:38.777Z,15.14
2023-07-04T12:06:42.064Z,15.71
2023-07-04T12:07:45.260Z,18.43
2023-07-04T12:08:48.427Z,18.29
2023-07-04T12:09:51.618Z,17.57
2023-07-04T12:10:55.009Z,20.00
2023-07-04T12:11:58.373Z,16.50
2023-07-04T12:13:01.559Z,16.43
2023-07-04T12:14:04.739Z,14.71
2023-07-04T12:15:07.946Z,13.50
2023-07-04T12:16:11.268Z,13.33
2023-07-04T12:17:14.392Z,13.00
2023-07-04T12:18:17.576Z,13.50
2023-07-04T12:19:20.751Z,13.71
2023-07-04T12:20:23.991Z,13.43
2023-07-04T12:21:27.216Z,13.86
2023-07-04T12:22:30.502Z,13.57
2023-07-04T12:23:33.869Z,11.43
2023-07-04T12:24:36.927Z,10.86
2023-07-04T12:25:40.006Z,12.29
2023-07-04T12:26:43.084Z,12.67
2023-07-04T12:27:46.308Z,12.00
2023-07-04T12:28:49.823Z,12.86
2023-07-04T12:30:03.556Z,12.00
2023-07-04T12:30:58.282Z,11.50
2023-07-04T12:32:01.840Z,13.50
2023-07-04T12:33:07.532Z,12.29
2023-07-04T12:34:10.242Z,11.25
2023-07-04T12:35:13.812Z,14.00
2023-07-04T12:36:17.094Z,15.29
2023-07-04T12:37:20.392Z,14.86
2023-07-04T12:38:25.367Z,15.00
2023-07-04T12:39:28.285Z,15.88
2023-07-04T12:40:31.587Z,16.29
2023-07-04T12:41:34.957Z,16.43
2023-07-04T12:42:38.331Z,15.14
2023-07-04T12:44:46.452Z,11.12
2023-07-04T12:50:08.060Z,13.00
2023-07-04T12:51:11.672Z,12.57
2023-07-04T12:52:15.260Z,12.86
2023-07-04T12:53:18.641Z,11.71
2023-07-04T12:54:22.245Z,10.43
2023-07-04T12:55:25.525Z,11.57
2023-07-04T12:56:28.900Z,11.00
2023-07-04T12:57:32.098Z,11.00
2023-07-04T12:58:35.285Z,11.86
2023-07-04T12:59:38.449Z,11.29
2023-07-04T13:00:41.747Z,11.14
2023-07-04T13:01:44.987Z,11.14
2023-07-04T13:02:48.211Z,10.71
2023-07-04T13:03:51.549Z,10.14
2023-07-04T13:04:54.712Z,9.43
2023-07-04T13:05:58.085Z,10.29
2023-07-04T13:07:01.262Z,11.00
2023-07-04T13:08:04.420Z,10.67
2023-07-04T13:09:07.408Z,10.00
2023-07-04T13:10:10.699Z,10.00
2023-07-04T13:11:14.072Z,11.29
2023-07-04T13:12:17.458Z,11.00
2023-07-04T13:13:22.478Z,10.86
2023-07-04T13:14:25.562Z,11.25
2023-07-04T13:15:28.950Z,10.71
2023-07-04T13:16:32.390Z,11.00
2023-07-04T13:17:35.774Z,10.71
2023-07-04T13:18:39.209Z,9.29
2023-07-04T13:19:44.309Z,9.43
2023-07-04T13:20:47.023Z,9.50
2023-07-04T13:21:50.683Z,10.57
2023-07-04T13:26:07.552Z,11.38
2023-07-04T13:27:14.349Z,9.00
2023-07-04T13:30:24.562Z,10.00
2023-07-04T13:33:36.943Z,13.13
2023-07-04T13:34:40.354Z,11.86
2023-07-04T13:35:43.840Z,9.43
2023-07-04T13:36:47.332Z,9.71
2023-07-04T13:39:49.867Z,10.00
2023-07-04T13:39:59.868Z,10.63
2023-07-04T13:41:03.570Z,11.71
2023-07-04T13:42:07.022Z,12.50
2023-07-04T13:45:19.198Z,11.00
2023-07-04T13:46:22.655Z,10.86
2023-07-04T13:47:26.125Z,10.71
2023-07-04T13:48:29.505Z,9.67
2023-07-04T13:49:32.984Z,10.57
2023-07-04T13:50:36.399Z,12.14
2023-07-04T13:51:39.763Z,13.29
2023-07-04T13:52:43.063Z,12.86
2023-07-04T13:53:46.225Z,10.57
2023-07-04T13:54:49.508Z,10.14
2023-07-04T13:55:52.795Z,10.71
2023-07-04T13:56:56.077Z,12.71
2023-07-04T13:57:59.467Z,10.86
2023-07-04T13:59:02.749Z,10.86
2023-07-04T14:00:07.539Z,10.29
2023-07-04T14:06:38.826Z,12.00
2023-07-04T14:07:42.281Z,12.86
2023-07-04T14:08:45.351Z,10.86
2023-07-04T14:09:48.402Z,11.00
2023-07-04T14:10:51.573Z,9.29
2023-07-04T14:11:54.872Z,9.00
2023-07-04T14:12:58.353Z,10.14
2023-07-04T14:14:07.843Z,10.71
2023-07-04T14:20:28.109Z,7.75
2023-07-04T14:21:31.861Z,8.43
2023-07-04T14:22:35.233Z,7.62
2023-07-04T14:23:38.548Z,7.71
2023-07-04T14:24:41.813Z,9.57
2023-07-04T14:25:46.388Z,8.57